createdAt,value
2022-08-24T00:00:11.082Z,100.00
2022-08-24T00:05:35.870Z,100.00
2022-08-24T00:11:03.631Z,100.00
2022-08-24T00:16:29.623Z,100.00
2022-08-24T00:21:52.736Z,100.00
2022-08-24T00:27:16.872Z,100.00
2022-08-24T00:32:40.675Z,100.00
2022-08-24T00:38:04.888Z,100.00
2022-08-24T00:43:31.137Z,100.00
2022-08-24T00:48:58.825Z,100.00
2022-08-24T00:54:25.276Z,100.00
2022-08-24T00:59:55.746Z,100.00
2022-08-24T01:05:22.172Z,100.00
2022-08-24T01:10:51.718Z,100.00
2022-08-24T01:21:58.063Z,100.00
2022-08-24T01:27:27.990Z,100.00
2022-08-24T01:32:49.603Z,100.00
2022-08-24T01:38:16.190Z,100.00
2022-08-24T01:43:38.632Z,100.00
2022-08-24T01:49:03.024Z,100.00
2022-08-24T01:54:27.754Z,100.00
2022-08-24T01:59:50.726Z,100.00
2022-08-24T02:05:13.821Z,100.00
2022-08-24T02:10:36.444Z,100.00
2022-08-24T02:16:01.455Z,100.00
2022-08-24T02:21:25.005Z,100.00
2022-08-24T02:26:48.077Z,100.00
2022-08-24T02:32:12.941Z,100.00
2022-08-24T02:37:35.833Z,100.00
2022-08-24T02:43:00.266Z,100.00
2022-08-24T02:48:24.156Z,100.00
2022-08-24T02:53:46.923Z,100.00
2022-08-24T02:59:12.820Z,100.00
2022-08-24T03:04:37.678Z,100.00
2022-08-24T03:10:00.314Z,100.00
2022-08-24T03:15:25.420Z,100.00
2022-08-24T03:20:48.949Z,100.00
2022-08-24T03:26:11.438Z,100.00
2022-08-24T03:31:40.377Z,100.00
2022-08-24T03:37:03.031Z,100.00
2022-08-24T03:42:25.474Z,100.00
2022-08-24T03:47:48.241Z,100.00
2022-08-24T03:53:11.723Z,100.00
2022-08-24T03:58:34.074Z,100.00
2022-08-24T04:03:59.479Z,100.00
2022-08-24T04:09:24.133Z,100.00
2022-08-24T04:14:47.024Z,100.00
2022-08-24T04:20:09.440Z,100.00
2022-08-24T04:25:32.653Z,100.00
2022-08-24T04:30:57.329Z,100.00
2022-08-24T04:36:21.398Z,100.00
2022-08-24T04:41:44.673Z,100.00
2022-08-24T04:47:09.375Z,100.00
2022-08-24T04:52:32.219Z,100.00
2022-08-24T04:57:54.885Z,100.00
2022-08-24T05:03:17.939Z,100.00
2022-08-24T05:08:44.443Z,100.00
2022-08-24T05:14:07.920Z,100.00
2022-08-24T05:19:32.833Z,100.00
2022-08-24T05:24:56.989Z,100.00
2022-08-24T05:30:20.531Z,100.00
2022-08-24T05:35:45.833Z,100.00
2022-08-24T05:41:11.799Z,100.00
2022-08-24T05:46:37.191Z,100.00
2022-08-24T05:52:00.414Z,100.00
2022-08-24T05:57:24.306Z,100.00
2022-08-24T06:02:46.746Z,100.00
2022-08-24T06:08:09.367Z,100.00
2022-08-24T06:13:31.894Z,100.00
2022-08-24T06:18:55.552Z,100.00
2022-08-24T06:24:19.058Z,100.00
2022-08-24T06:29:41.385Z,100.00
2022-08-24T06:35:04.253Z,100.00
2022-08-24T06:40:27.093Z,100.00
2022-08-24T06:45:50.241Z,100.00
2022-08-24T06:51:21.216Z,100.00
2022-08-24T06:56:46.754Z,100.00
2022-08-24T07:02:11.259Z,100.00
2022-08-24T07:07:33.559Z,100.00
2022-08-24T07:12:56.558Z,100.00
2022-08-24T07:18:20.637Z,100.00
2022-08-24T07:23:45.057Z,100.00
2022-08-24T07:29:45.796Z,100.00
2022-08-24T07:34:39.967Z,100.00
2022-08-24T07:40:02.663Z,100.00
2022-08-24T07:45:27.250Z,100.00
2022-08-24T07:50:49.528Z,100.00
2022-08-24T07:56:13.063Z,95.60
2022-08-24T08:01:35.888Z,91.39
2022-08-24T08:07:02.164Z,90.00
2022-08-24T08:12:27.794Z,89.03
2022-08-24T08:17:56.095Z,86.67
2022-08-24T08:23:32.289Z,84.78
2022-08-24T08:28:54.822Z,81.95
2022-08-24T08:34:18.299Z,81.07
2022-08-24T08:39:41.189Z,79.85
2022-08-24T08:45:20.240Z,79.49
2022-08-24T08:51:06.739Z,78.68
2022-08-24T08:57:04.934Z,82.36
2022-08-24T09:02:45.590Z,82.76
2022-08-24T09:08:40.395Z,79.41
2022-08-24T09:14:56.160Z,75.79
2022-08-24T09:20:42.047Z,73.34
2022-08-24T09:26:27.606Z,71.93
2022-08-24T09:38:08.618Z,73.30
2022-08-24T09:43:41.572Z,73.12
2022-08-24T09:49:14.658Z,69.87
2022-08-24T09:54:57.637Z,66.75
2022-08-24T10:00:31.099Z,64.72
2022-08-24T10:06:22.351Z,66.28
2022-08-24T10:12:11.424Z,63.19
2022-08-24T10:17:51.301Z,60.02
2022-08-24T10:23:50.561Z,58.40
2022-08-24T10:29:51.695Z,59.16
2022-08-24T10:35:46.794Z,60.35
2022-08-24T10:41:43.177Z,57.47
2022-08-24T10:47:19.537Z,54.48
2022-08-24T10:52:52.706Z,50.81
2022-08-24T10:58:49.877Z,51.11
2022-08-24T11:04:19.501Z,52.50
2022-08-24T11:09:57.982Z,49.07
2022-08-24T11:15:33.090Z,46.58
2022-08-24T11:21:03.023Z,47.31
2022-08-24T11:26:34.603Z,50.99
2022-08-24T11:32:03.155Z,51.69
2022-08-24T11:37:31.399Z,47.87
2022-08-24T11:43:15.563Z,52.80
2022-08-24T11:48:57.750Z,50.88
2022-08-24T11:54:51.353Z,47.91
2022-08-24T12:00:34.787Z,45.35
2022-08-24T12:06:35.268Z,45.03
2022-08-24T12:12:14.442Z,46.72
2022-08-24T12:18:03.566Z,49.89
2022-08-24T12:23:39.614Z,51.06
2022-08-24T12:29:27.184Z,45.59
2022-08-24T12:35:10.471Z,42.62
2022-08-24T12:40:53.612Z,42.85
2022-08-24T12:46:19.327Z,45.73
2022-08-24T12:51:59.156Z,49.39
2022-08-24T12:58:30.997Z,45.67
2022-08-24T13:03:46.883Z,43.22
2022-08-24T13:09:14.674Z,41.34
2022-08-24T13:14:40.020Z,40.46
2022-08-24T13:26:01.729Z,38.39
2022-08-24T13:31:44.584Z,40.21
2022-08-24T13:37:34.603Z,38.21
2022-08-24T13:43:16.328Z,37.68
2022-08-24T13:48:53.224Z,39.59
2022-08-24T14:01:04.232Z,45.91
2022-08-24T14:06:34.241Z,48.20
2022-08-24T14:12:06.582Z,49.36
2022-08-24T14:18:12.660Z,49.19
2022-08-24T14:23:56.617Z,50.85
2022-08-24T14:29:41.496Z,50.32
2022-08-24T14:35:11.575Z,48.57
2022-08-24T14:41:03.636Z,44.42
2022-08-24T14:46:40.434Z,44.12
2022-08-24T14:52:26.177Z,45.13
2022-08-24T14:58:25.482Z,44.19
2022-08-24T15:04:00.435Z,44.80
2022-08-24T15:09:39.070Z,45.70
2022-08-24T15:15:16.249Z,48.01
2022-08-24T15:21:03.973Z,49.38
2022-08-24T15:26:37.015Z,50.11
2022-08-24T15:32:11.964Z,47.73
2022-08-24T15:37:47.862Z,46.55
2022-08-24T15:43:12.826Z,49.17
2022-08-24T15:48:38.136Z,48.79
2022-08-24T15:54:01.066Z,47.66
2022-08-24T15:59:42.448Z,46.90
2022-08-24T16:05:27.939Z,46.95
2022-08-24T16:11:05.863Z,46.41
2022-08-24T16:16:41.381Z,45.76
2022-08-24T16:22:16.353Z,46.05
2022-08-24T16:27:58.766Z,47.13
2022-08-24T16:33:44.279Z,49.98
2022-08-24T16:39:06.442Z,51.26
2022-08-24T16:44:29.442Z,53.05
2022-08-24T16:49:51.893Z,53.74
2022-08-24T16:55:15.216Z,54.62
2022-08-24T17:00:38.374Z,56.30
2022-08-24T17:06:02.798Z,57.59
2022-08-24T17:11:28.123Z,58.87
2022-08-24T17:16:53.326Z,59.56
2022-08-24T17:22:17.890Z,60.46
2022-08-24T17:27:44.651Z,61.06
2022-08-24T17:33:07.056Z,61.87
2022-08-24T17:38:29.443Z,63.16
2022-08-24T17:43:52.308Z,64.66
2022-08-24T17:49:16.918Z,66.00
2022-08-24T17:54:40.426Z,67.02
2022-08-24T18:00:02.845Z,67.96
2022-08-24T18:05:26.249Z,68.73
2022-08-24T18:10:50.108Z,68.72
2022-08-24T18:16:13.083Z,69.50
2022-08-24T18:21:35.983Z,69.99
2022-08-24T18:26:59.748Z,70.47
2022-08-24T18:32:22.192Z,71.04
2022-08-24T18:37:44.404Z,71.52
2022-08-24T18:43:08.871Z,72.40
2022-08-24T18:48:31.478Z,73.49
2022-08-24T18:53:53.961Z,73.99
2022-08-24T18:59:20.706Z,74.54
2022-08-24T19:04:47.438Z,75.44
2022-08-24T19:10:12.129Z,76.35
2022-08-24T19:15:39.890Z,77.01
2022-08-24T19:21:03.926Z,77.64
2022-08-24T19:26:26.862Z,78.44
2022-08-24T19:31:50.949Z,79.24
2022-08-24T19:37:13.464Z,79.42
2022-08-24T19:42:36.609Z,79.98
2022-08-24T19:47:59.896Z,80.14
2022-08-24T19:53:26.940Z,80.22
2022-08-24T19:59:08.574Z,79.90
2022-08-24T20:04:31.403Z,79.59
2022-08-24T20:09:55.001Z,79.41
2022-08-24T20:15:18.517Z,80.48
2022-08-24T20:20:43.429Z,81.57
2022-08-24T20:26:06.260Z,82.84
2022-08-24T20:31:29.884Z,84.08
2022-08-24T20:37:00.495Z,85.28
2022-08-24T20:42:24.289Z,86.82
2022-08-24T20:47:48.441Z,87.94
2022-08-24T20:53:12.375Z,89.46
2022-08-24T20:58:36.491Z,89.88
2022-08-24T21:04:04.296Z,91.62
2022-08-24T21:09:24.947Z,92.41
2022-08-24T21:14:47.916Z,93.46
2022-08-24T21:20:12.855Z,94.48
2022-08-24T21:25:35.549Z,95.50
2022-08-24T21:31:00.483Z,95.65
2022-08-24T21:36:23.855Z,96.25
2022-08-24T21:41:47.180Z,96.87
2022-08-24T21:47:09.554Z,98.34
2022-08-24T21:52:31.997Z,98.79
2022-08-24T21:57:54.914Z,99.04
2022-08-24T22:03:19.195Z,100.00
2022-08-24T22:08:43.014Z,100.00
2022-08-24T22:14:08.126Z,100.00
2022-08-24T22:19:32.086Z,100.00
2022-08-24T22:24:55.328Z,100.00
2022-08-24T22:30:19.273Z,100.00
2022-08-24T22:35:45.243Z,100.00
2022-08-24T22:41:14.624Z,100.00
2022-08-24T22:46:38.281Z,100.00
2022-08-24T22:52:00.926Z,100.00
2022-08-24T22:57:23.163Z,100.00
2022-08-24T23:02:45.449Z,100.00
2022-08-24T23:08:07.912Z,100.00
2022-08-24T23:13:30.160Z,100.00
2022-08-24T23:19:10.483Z,100.00
2022-08-24T23:24:34.492Z,100.00
2022-08-24T23:29:57.838Z,100.00
2022-08-24T23:35:21.613Z,100.00
2022-08-24T23:40:45.539Z,100.00
2022-08-24T23:46:08.339Z,100.00
2022-08-24T23:51:34.339Z,100.00
2022-08-24T23:57:00.876Z,100.00
